createdAt,value
2018-09-17T00:01:39.365Z,8.50
2018-09-17T00:04:07.412Z,8.20
2018-09-17T00:06:35.454Z,8.40
2018-09-17T00:09:04.040Z,8.73
2018-09-17T00:11:32.076Z,8.60
2018-09-17T00:14:00.128Z,8.17
2018-09-17T00:16:28.206Z,8.23
2018-09-17T00:18:56.248Z,7.78
2018-09-17T00:21:24.277Z,7.25
2018-09-17T00:23:52.369Z,6.80
2018-09-17T00:26:20.421Z,7.00
2018-09-17T00:28:48.472Z,7.83
2018-09-17T00:31:16.480Z,7.20
2018-09-17T00:33:44.492Z,7.12
2018-09-17T00:36:12.512Z,6.70
2018-09-17T00:38:40.542Z,6.28
2018-09-17T00:41:08.569Z,6.10
2018-09-17T00:43:36.724Z,6.10
2018-09-17T00:46:04.757Z,5.83
2018-09-17T00:48:32.763Z,5.85
2018-09-17T00:51:00.808Z,5.73
2018-09-17T00:53:28.824Z,5.80
2018-09-17T00:55:56.861Z,5.42
2018-09-17T00:58:24.881Z,5.20
2018-09-17T01:00:52.908Z,5.30
2018-09-17T01:03:20.960Z,5.30
2018-09-17T01:05:49.023Z,5.40
2018-09-17T01:08:17.041Z,5.17
2018-09-17T01:10:45.059Z,4.93
2018-09-17T01:13:13.280Z,5.28
2018-09-17T01:15:41.316Z,5.30
2018-09-17T01:18:09.356Z,5.00
2018-09-17T01:20:37.393Z,4.95
2018-09-17T01:23:05.397Z,5.30
2018-09-17T01:25:33.435Z,5.60
2018-09-17T01:28:01.456Z,5.85
2018-09-17T01:30:29.550Z,5.80
2018-09-17T01:32:57.508Z,6.10
2018-09-17T01:35:25.551Z,5.80
2018-09-17T01:37:53.552Z,6.50
2018-09-17T01:40:21.580Z,6.80
2018-09-17T01:42:49.572Z,6.50
2018-09-17T01:45:17.624Z,6.10
2018-09-17T01:47:45.645Z,6.50
2018-09-17T01:50:13.664Z,7.00
2018-09-17T01:52:41.713Z,6.85
2018-09-17T01:55:09.713Z,6.55
2018-09-17T01:57:37.721Z,7.15
2018-09-17T02:00:05.752Z,6.80
2018-09-17T02:02:33.756Z,7.45
2018-09-17T02:05:01.792Z,7.30
2018-09-17T02:07:29.800Z,7.40
2018-09-17T02:09:57.885Z,8.63
2018-09-17T02:12:25.816Z,7.60
2018-09-17T02:14:53.839Z,8.20
2018-09-17T02:17:22.130Z,7.40
2018-09-17T02:19:50.161Z,7.85
2018-09-17T02:22:18.192Z,7.70
2018-09-17T02:24:46.195Z,8.38
2018-09-17T02:27:14.219Z,7.70
2018-09-17T02:29:42.256Z,8.40
2018-09-17T02:32:10.309Z,8.50
2018-09-17T02:34:38.327Z,8.50
2018-09-17T02:37:06.363Z,8.20
2018-09-17T02:39:34.416Z,8.60
2018-09-17T02:42:02.497Z,8.70
2018-09-17T02:44:30.546Z,8.50
2018-09-17T02:46:58.593Z,8.65
2018-09-17T02:49:26.623Z,8.68
2018-09-17T02:51:54.660Z,9.80
2018-09-17T02:54:22.699Z,8.70
2018-09-17T02:56:50.749Z,8.88
2018-09-17T02:59:18.780Z,8.45
2018-09-17T03:01:46.835Z,8.95
2018-09-17T03:04:14.871Z,9.05
2018-09-17T03:06:43.186Z,8.00
2018-09-17T03:09:11.228Z,8.08
2018-09-17T03:11:39.285Z,8.30
2018-09-17T03:14:07.317Z,8.20
2018-09-17T03:16:45.356Z,9.08
2018-09-17T03:19:13.396Z,8.33
2018-09-17T03:21:41.451Z,9.00
2018-09-17T03:24:09.467Z,8.40
2018-09-17T03:26:37.512Z,8.60
2018-09-17T03:29:05.649Z,8.78
2018-09-17T03:31:33.692Z,8.60
2018-09-17T03:34:01.731Z,8.50
2018-09-17T03:36:29.781Z,8.90
2018-09-17T03:38:57.804Z,9.00
2018-09-17T03:41:25.856Z,9.15
2018-09-17T03:43:53.924Z,8.60
2018-09-17T03:46:22.102Z,8.20
2018-09-17T03:48:49.989Z,8.23
2018-09-17T03:51:18.240Z,7.83
2018-09-17T03:53:46.280Z,8.60
2018-09-17T03:56:14.333Z,9.03
2018-09-17T03:58:42.341Z,9.03
2018-09-17T04:01:10.408Z,8.78
2018-09-17T04:03:38.456Z,8.60
2018-09-17T04:06:06.248Z,9.20
2018-09-17T04:08:34.304Z,8.85
2018-09-17T04:11:02.492Z,8.70
2018-09-17T04:13:30.551Z,8.75
2018-09-17T04:15:58.606Z,8.63
2018-09-17T04:18:26.633Z,9.45
2018-09-17T04:20:54.679Z,10.10
2018-09-17T04:23:27.968Z,8.60
2018-09-17T04:25:56.013Z,9.05
2018-09-17T04:28:24.065Z,9.30
2018-09-17T04:30:52.128Z,9.33
2018-09-17T04:33:20.157Z,8.65
2018-09-17T04:35:48.220Z,9.60
2018-09-17T04:38:16.273Z,9.63
2018-09-17T04:40:44.301Z,9.05
2018-09-17T04:43:12.361Z,10.03
2018-09-17T04:45:40.405Z,10.50
2018-09-17T04:48:08.432Z,9.60
2018-09-17T04:50:36.520Z,9.30
2018-09-17T04:53:04.573Z,10.23
2018-09-17T04:55:32.616Z,9.90
2018-09-17T04:58:00.664Z,10.55
2018-09-17T05:00:28.729Z,9.30
2018-09-17T05:02:56.780Z,10.40
2018-09-17T05:05:24.972Z,9.58
2018-09-17T05:07:53.016Z,10.90
2018-09-17T05:10:21.053Z,11.20
2018-09-17T05:12:49.158Z,11.00
2018-09-17T05:15:17.160Z,12.03
2018-09-17T05:17:45.205Z,11.22
2018-09-17T05:20:13.253Z,10.90
2018-09-17T05:22:41.308Z,11.88
2018-09-17T05:25:09.353Z,11.20
2018-09-17T05:27:37.514Z,11.60
2018-09-17T05:30:06.073Z,11.73
2018-09-17T05:32:34.132Z,10.55
2018-09-17T05:35:02.170Z,11.08
2018-09-17T05:37:30.180Z,11.57
2018-09-17T05:39:58.220Z,11.60
2018-09-17T05:42:26.269Z,11.22
2018-09-17T05:44:54.302Z,12.85
2018-09-17T05:47:22.848Z,13.10
2018-09-17T05:49:50.865Z,12.70
2018-09-17T05:52:18.885Z,12.90
2018-09-17T05:54:46.936Z,14.33
2018-09-17T05:57:14.957Z,14.23
2018-09-17T05:59:43.079Z,15.20
2018-09-17T06:02:11.046Z,15.80
2018-09-17T06:04:39.080Z,11.53
2018-09-17T06:07:07.141Z,12.78
2018-09-17T06:09:35.183Z,12.80
2018-09-17T06:12:03.308Z,14.45
2018-09-17T06:14:31.385Z,15.48
2018-09-17T06:16:59.425Z,15.10
2018-09-17T06:19:28.048Z,14.30
2018-09-17T06:21:56.288Z,14.10
2018-09-17T06:24:24.327Z,13.10
2018-09-17T06:26:52.368Z,12.95
2018-09-17T06:29:20.408Z,13.10
2018-09-17T06:31:48.441Z,14.00
2018-09-17T06:34:16.468Z,14.45
2018-09-17T06:36:44.521Z,12.95
2018-09-17T06:39:12.542Z,12.85
2018-09-17T06:41:40.631Z,13.00
2018-09-17T06:44:08.821Z,12.50
2018-09-17T06:46:36.863Z,13.00
2018-09-17T06:49:04.888Z,13.57
2018-09-17T06:51:32.915Z,13.50
2018-09-17T06:54:00.939Z,14.80
2018-09-17T06:56:28.996Z,15.40
2018-09-17T06:58:57.024Z,13.60
2018-09-17T07:01:25.044Z,14.70
2018-09-17T07:03:53.075Z,14.68
2018-09-17T07:06:21.204Z,13.78
2018-09-17T07:08:49.319Z,13.80
2018-09-17T07:11:17.360Z,12.37
2018-09-17T07:13:45.821Z,13.35
2018-09-17T07:16:13.832Z,12.87
2018-09-17T07:18:41.852Z,12.82
2018-09-17T07:23:54.575Z,12.60
2018-09-17T07:26:22.616Z,13.78
2018-09-17T07:28:50.660Z,13.30
2018-09-17T07:31:18.712Z,13.20
2018-09-17T07:33:46.804Z,13.43
2018-09-17T07:36:14.862Z,13.08
2018-09-17T07:38:42.887Z,14.10
2018-09-17T07:41:10.941Z,14.53
2018-09-17T07:43:39.089Z,14.60
2018-09-17T07:46:07.191Z,13.98
2018-09-17T07:48:35.256Z,14.78
2018-09-17T07:53:10.139Z,37.05
2018-09-17T07:55:38.214Z,18.65
2018-09-17T07:58:06.183Z,14.57
2018-09-17T08:00:34.208Z,14.03
2018-09-17T08:03:02.245Z,13.00
2018-09-17T08:05:30.343Z,14.30
2018-09-17T08:07:58.356Z,12.93
2018-09-17T08:10:26.704Z,12.90
2018-09-17T08:12:54.763Z,12.75
2018-09-17T08:18:05.296Z,14.50
2018-09-17T08:20:33.369Z,13.80
2018-09-17T08:23:01.616Z,13.65
2018-09-17T08:25:29.722Z,13.30
2018-09-17T08:27:58.109Z,12.85
2018-09-17T08:30:26.193Z,11.65
2018-09-17T08:32:54.472Z,11.30
2018-09-17T08:35:22.561Z,10.63
2018-09-17T08:37:50.701Z,11.70
2018-09-17T08:40:18.805Z,9.70
2018-09-17T08:42:46.839Z,7.90
2018-09-17T08:45:14.992Z,7.28
2018-09-17T08:47:43.385Z,6.53
2018-09-17T08:50:11.421Z,6.80
2018-09-17T08:52:39.479Z,7.00
2018-09-17T08:55:14.876Z,5.75
2018-09-17T08:57:48.356Z,6.12
2018-09-17T09:00:19.345Z,5.62
2018-09-17T09:02:52.814Z,5.70
2018-09-17T09:05:26.302Z,5.90
2018-09-17T09:07:55.527Z,6.00
2018-09-17T09:10:29.075Z,6.00
2018-09-17T09:13:02.887Z,5.40
2018-09-17T09:15:36.521Z,6.30
2018-09-17T09:18:05.625Z,6.23
2018-09-17T09:20:33.816Z,6.97
2018-09-17T09:23:01.861Z,5.60
2018-09-17T09:25:30.057Z,6.20
2018-09-17T09:27:58.130Z,6.07
2018-09-17T09:30:26.200Z,6.60
2018-09-17T09:32:54.371Z,5.85
2018-09-17T09:35:22.727Z,5.65
2018-09-17T09:37:50.940Z,5.37
2018-09-17T09:40:18.964Z,5.42
2018-09-17T09:42:47.056Z,5.42
2018-09-17T09:45:16.050Z,10.40
2018-09-17T09:47:44.502Z,5.30
2018-09-17T09:50:12.528Z,4.80
2018-09-17T09:52:40.575Z,4.90
2018-09-17T09:55:08.571Z,5.80
2018-09-17T09:57:36.612Z,5.30
2018-09-17T10:00:05.936Z,5.10
2018-09-17T10:02:39.568Z,5.03
2018-09-17T10:05:07.618Z,5.60
2018-09-17T10:07:35.669Z,5.05
2018-09-17T10:11:11.948Z,5.53
2018-09-17T10:13:45.588Z,4.70
2018-09-17T10:16:16.300Z,4.80
2018-09-17T10:18:49.968Z,4.62
2018-09-17T10:21:18.007Z,4.70
2018-09-17T10:23:46.409Z,4.65
2018-09-17T10:26:14.441Z,5.00
2018-09-17T10:28:42.644Z,5.70
2018-09-17T10:31:10.651Z,5.40
2018-09-17T10:33:39.001Z,4.72
2018-09-17T10:36:07.367Z,4.62
2018-09-17T10:38:35.388Z,4.83
2018-09-17T10:41:03.423Z,5.08
2018-09-17T10:43:31.432Z,4.40
2018-09-17T10:45:59.443Z,5.25
2018-09-17T10:48:27.468Z,4.50
2018-09-17T10:50:55.505Z,4.17
2018-09-17T10:53:23.559Z,4.60
2018-09-17T10:55:51.587Z,4.35
2018-09-17T10:58:19.614Z,3.90
2018-09-17T11:00:47.629Z,4.00
2018-09-17T11:03:15.652Z,3.70
2018-09-17T11:05:43.664Z,4.17
2018-09-17T11:08:11.717Z,4.07
2018-09-17T11:10:39.742Z,3.60
2018-09-17T11:13:07.772Z,3.30
2018-09-17T11:15:41.252Z,3.50
2018-09-17T11:18:09.280Z,3.60
2018-09-17T11:20:37.335Z,3.20
2018-09-17T11:23:05.368Z,3.50
2018-09-17T11:25:33.376Z,3.40
2018-09-17T11:28:01.396Z,3.83
2018-09-17T11:30:29.508Z,3.80
2018-09-17T11:32:57.532Z,3.30
2018-09-17T11:35:25.580Z,3.10
2018-09-17T11:37:53.614Z,3.10
2018-09-17T11:40:21.644Z,3.40
2018-09-17T11:42:49.653Z,3.30
2018-09-17T11:45:17.780Z,3.40
2018-09-17T11:47:45.792Z,2.98
2018-09-17T11:50:13.833Z,3.25
2018-09-17T11:52:41.875Z,3.00
2018-09-17T11:55:09.938Z,3.00
2018-09-17T11:57:37.968Z,3.00
2018-09-17T12:00:06.045Z,3.10
2018-09-17T12:02:37.527Z,3.00
2018-09-17T12:05:06.847Z,3.00
2018-09-17T12:07:42.204Z,3.00
2018-09-17T12:10:11.168Z,3.00
2018-09-17T12:12:39.524Z,3.20
2018-09-17T12:15:08.123Z,3.12
2018-09-17T12:17:36.587Z,2.90
2018-09-17T12:20:04.678Z,2.77
2018-09-17T12:22:32.689Z,2.50
2018-09-17T12:25:00.716Z,2.50
2018-09-17T12:27:28.728Z,3.10
2018-09-17T12:29:56.744Z,2.50
2018-09-17T12:32:24.753Z,3.00
2018-09-17T12:34:52.774Z,2.70
2018-09-17T12:37:20.775Z,2.47
2018-09-17T12:39:48.800Z,2.90
2018-09-17T12:42:16.788Z,3.00
2018-09-17T12:44:44.801Z,3.10
2018-09-17T12:47:12.821Z,3.17
2018-09-17T12:49:40.848Z,3.00
2018-09-17T12:52:08.853Z,2.98
2018-09-17T12:54:36.913Z,2.70
2018-09-17T12:57:04.888Z,2.60
2018-09-17T12:59:32.917Z,2.70
2018-09-17T13:02:00.942Z,2.70
2018-09-17T13:04:28.974Z,2.70
2018-09-17T13:06:56.972Z,2.60
2018-09-17T13:09:24.993Z,2.87
2018-09-17T13:11:53.004Z,2.60
2018-09-17T13:14:21.076Z,2.37
2018-09-17T13:16:49.084Z,2.80
2018-09-17T13:19:17.107Z,2.90
2018-09-17T13:21:45.128Z,3.40
2018-09-17T13:24:13.162Z,3.40
2018-09-17T13:26:41.172Z,2.70
2018-09-17T13:29:09.200Z,3.00
2018-09-17T13:31:37.243Z,3.10
2018-09-17T13:34:05.268Z,3.00
2018-09-17T13:36:33.301Z,3.00
2018-09-17T13:39:01.333Z,3.20
2018-09-17T13:41:29.372Z,3.07
2018-09-17T13:43:57.408Z,3.00
2018-09-17T13:46:25.448Z,2.90
2018-09-17T13:48:53.484Z,2.72
2018-09-17T13:51:21.512Z,3.00
2018-09-17T13:53:49.622Z,2.92
2018-09-17T13:56:17.621Z,2.80
2018-09-17T13:58:45.659Z,2.70
2018-09-17T14:01:13.686Z,2.90
2018-09-17T14:03:41.733Z,3.10
2018-09-17T14:06:09.773Z,2.90
2018-09-17T14:08:37.806Z,2.60
2018-09-17T14:11:06.025Z,2.75
2018-09-17T14:13:34.031Z,2.43
2018-09-17T14:16:06.872Z,2.50
2018-09-17T14:18:35.132Z,2.45
2018-09-17T14:21:03.205Z,2.27
2018-09-17T14:23:31.204Z,2.50
2018-09-17T14:25:59.252Z,2.83
2018-09-17T14:28:27.285Z,3.20
2018-09-17T14:30:55.332Z,2.80
2018-09-17T14:33:28.953Z,3.10
2018-09-17T14:35:57.166Z,2.65
2018-09-17T14:38:25.331Z,3.00
2018-09-17T14:40:53.582Z,3.10
2018-09-17T14:43:21.553Z,3.30
2018-09-17T14:45:49.579Z,2.72
2018-09-17T14:48:17.628Z,2.90
2018-09-17T14:50:45.640Z,3.30
2018-09-17T14:53:13.712Z,2.80
2018-09-17T14:55:41.720Z,2.60
2018-09-17T14:58:09.757Z,2.77
2018-09-17T15:00:37.877Z,2.62
2018-09-17T15:03:06.035Z,2.80
2018-09-17T15:05:34.068Z,2.77
2018-09-17T15:08:02.230Z,2.60
2018-09-17T15:10:30.212Z,2.70
2018-09-17T15:12:58.424Z,2.47
2018-09-17T15:15:26.515Z,2.70
2018-09-17T15:17:54.485Z,3.30
2018-09-17T15:20:22.768Z,2.90
2018-09-17T15:22:50.727Z,2.73
2018-09-17T15:25:18.770Z,3.60
2018-09-17T15:27:46.931Z,3.17
2018-09-17T15:30:14.960Z,3.00
2018-09-17T15:32:43.196Z,3.00
2018-09-17T15:35:11.256Z,2.77
2018-09-17T15:37:39.251Z,2.67
2018-09-17T15:40:07.488Z,2.90
2018-09-17T15:42:35.449Z,2.65
2018-09-17T15:45:03.487Z,2.60
2018-09-17T15:47:31.536Z,2.83
2018-09-17T15:49:59.579Z,3.10
2018-09-17T15:52:27.606Z,3.10
2018-09-17T15:54:55.645Z,2.98
2018-09-17T15:57:23.780Z,2.60
2018-09-17T15:59:51.804Z,3.00
2018-09-17T16:02:19.856Z,3.20
2018-09-17T16:04:47.889Z,2.60
2018-09-17T16:07:15.913Z,2.87
2018-09-17T16:09:43.947Z,2.90
2018-09-17T16:12:12.006Z,2.85
2018-09-17T16:14:40.024Z,3.77
2018-09-17T16:17:08.053Z,3.00
2018-09-17T16:19:36.092Z,3.80
2018-09-17T16:22:04.121Z,3.20
2018-09-17T16:24:32.164Z,3.20
2018-09-17T16:27:00.232Z,2.58
2018-09-17T16:31:30.034Z,3.10
2018-09-17T16:33:58.053Z,3.30
2018-09-17T16:36:26.080Z,3.00
2018-09-17T16:38:54.108Z,3.42
2018-09-17T16:41:22.142Z,3.00
2018-09-17T16:43:50.190Z,3.60
2018-09-17T16:46:18.208Z,4.10
2018-09-17T16:48:46.236Z,3.10
2018-09-17T16:51:14.307Z,3.55
2018-09-17T16:53:42.344Z,3.75
2018-09-17T16:56:10.321Z,3.60
2018-09-17T16:58:38.344Z,4.70
2018-09-17T17:01:06.355Z,5.28
2018-09-17T17:03:34.385Z,5.62
2018-09-17T17:06:02.428Z,4.87
2018-09-17T17:08:30.460Z,6.20
2018-09-17T17:10:58.635Z,5.12
2018-09-17T17:13:26.528Z,7.35
2018-09-17T17:15:54.563Z,7.50
2018-09-17T17:18:22.560Z,9.60
2018-09-17T17:20:50.560Z,7.45
2018-09-17T17:23:18.572Z,8.10
2018-09-17T17:25:46.644Z,7.05
2018-09-17T17:28:14.715Z,8.43
2018-09-17T17:30:42.709Z,9.13
2018-09-17T17:33:10.807Z,7.83
2018-09-17T17:35:38.992Z,8.15
2018-09-17T17:38:07.012Z,8.73
2018-09-17T17:40:35.165Z,8.18
2018-09-17T17:43:03.050Z,7.55
2018-09-17T17:45:31.078Z,7.97
2018-09-17T17:47:59.147Z,8.45
2018-09-17T17:50:27.152Z,7.62
2018-09-17T17:52:55.172Z,8.28
2018-09-17T17:55:23.192Z,8.08
2018-09-17T17:57:51.239Z,7.62
2018-09-17T18:00:19.243Z,7.67
2018-09-17T18:02:47.277Z,8.98
2018-09-17T18:05:15.316Z,10.60
2018-09-17T18:07:43.345Z,10.50
2018-09-17T18:10:11.387Z,11.03
2018-09-17T18:12:39.414Z,11.73
2018-09-17T18:15:07.522Z,11.57
2018-09-17T18:17:35.484Z,13.25
2018-09-17T18:20:03.527Z,14.33
2018-09-17T18:22:31.560Z,13.43
2018-09-17T18:24:59.588Z,14.35
2018-09-17T18:27:27.596Z,13.95
2018-09-17T18:29:55.629Z,12.90
2018-09-17T18:32:23.644Z,17.35
2018-09-17T18:34:51.676Z,18.75
2018-09-17T18:37:19.706Z,18.50
2018-09-17T18:39:47.884Z,17.20
2018-09-17T18:42:15.813Z,17.27
2018-09-17T18:44:43.952Z,18.67
2018-09-17T18:47:11.961Z,18.93
2018-09-17T18:49:40.088Z,18.40
2018-09-17T18:52:08.100Z,16.90
2018-09-17T18:54:36.120Z,18.10
2018-09-17T18:57:04.220Z,17.67
2018-09-17T18:59:32.164Z,18.00
2018-09-17T19:02:00.197Z,18.10
2018-09-17T19:04:28.238Z,16.67
2018-09-17T19:06:56.261Z,17.67
2018-09-17T19:09:29.665Z,19.05
2018-09-17T19:11:57.762Z,17.62
2018-09-17T19:14:31.116Z,18.73
2018-09-17T19:16:59.146Z,18.17
2018-09-17T19:19:27.154Z,22.27
2018-09-17T19:22:00.964Z,18.67
2018-09-17T19:24:28.761Z,21.97
2018-09-17T19:26:56.792Z,23.20
2018-09-17T19:29:24.825Z,20.27
2018-09-17T19:31:52.904Z,22.40
2018-09-17T19:34:20.876Z,24.40
2018-09-17T19:36:48.920Z,23.18
2018-09-17T19:39:22.509Z,18.80
2018-09-17T19:41:50.607Z,23.02
2018-09-17T19:44:18.626Z,23.38
2018-09-17T19:46:46.612Z,24.00
2018-09-17T19:49:14.645Z,25.52
2018-09-17T19:51:48.252Z,27.48
2018-09-17T19:54:16.312Z,29.02
2018-09-17T19:56:44.328Z,29.90
2018-09-17T19:59:17.845Z,30.00
2018-09-17T20:01:45.862Z,28.70
2018-09-17T20:04:19.277Z,27.50
2018-09-17T20:06:47.298Z,18.43
2018-09-17T20:09:15.312Z,18.15
2018-09-17T20:11:47.123Z,23.42
2018-09-17T20:14:15.149Z,29.40
2018-09-17T20:16:43.316Z,27.70
2018-09-17T20:19:11.638Z,20.85
2018-09-17T20:21:39.695Z,17.30
2018-09-17T20:24:07.722Z,16.60
2018-09-17T20:26:35.729Z,18.30
2018-09-17T20:29:03.780Z,19.37
2018-09-17T20:31:31.829Z,23.55
2018-09-17T20:33:59.855Z,24.47
2018-09-17T20:36:27.899Z,26.68
2018-09-17T20:38:55.980Z,25.27
2018-09-17T20:41:24.001Z,23.65
2018-09-17T20:43:52.033Z,22.05
2018-09-17T20:46:20.097Z,25.50
2018-09-17T20:48:48.229Z,23.90
2018-09-17T20:51:16.171Z,25.23
2018-09-17T20:53:44.209Z,25.83
2018-09-17T20:56:12.338Z,25.32
2018-09-17T20:58:40.280Z,22.55
2018-09-17T21:01:08.644Z,17.87
2018-09-17T21:03:36.549Z,14.87
2018-09-17T21:06:04.595Z,19.98
2018-09-17T21:08:32.687Z,17.32
2018-09-17T21:11:00.706Z,16.00
2018-09-17T21:13:28.807Z,17.27
2018-09-17T21:15:56.831Z,19.40
2018-09-17T21:18:24.900Z,20.68
2018-09-17T21:20:53.020Z,18.87
2018-09-17T21:23:21.068Z,17.60
2018-09-17T21:25:49.121Z,17.37
2018-09-17T21:28:17.176Z,15.70
2018-09-17T21:30:45.268Z,14.68
2018-09-17T21:33:13.301Z,12.03
2018-09-17T21:35:41.352Z,14.15
2018-09-17T21:38:09.433Z,11.73
2018-09-17T21:40:37.522Z,10.43
2018-09-17T21:43:05.559Z,11.40
2018-09-17T21:45:33.574Z,11.43
2018-09-17T21:48:01.673Z,9.83
2018-09-17T21:50:29.968Z,8.65
2018-09-17T21:52:58.021Z,10.00
2018-09-17T21:55:26.270Z,10.80
2018-09-17T21:57:54.603Z,9.15
2018-09-17T22:00:23.333Z,8.70
2018-09-17T22:02:51.813Z,9.07
2018-09-17T22:05:20.092Z,8.78
2018-09-17T22:07:48.595Z,7.45
2018-09-17T22:10:17.115Z,7.65
2018-09-17T22:12:45.178Z,8.55
2018-09-17T22:15:13.191Z,7.40
2018-09-17T22:17:41.216Z,7.60
2018-09-17T22:20:09.241Z,7.70
2018-09-17T22:22:37.296Z,7.40
2018-09-17T22:25:05.324Z,8.33
2018-09-17T22:27:33.356Z,8.70
2018-09-17T22:30:01.386Z,9.60
2018-09-17T22:32:29.436Z,9.00
2018-09-17T22:34:57.469Z,8.80
2018-09-17T22:37:25.491Z,8.10
2018-09-17T22:39:53.540Z,8.90
2018-09-17T22:42:21.691Z,7.20
2018-09-17T22:44:49.657Z,8.40
2018-09-17T22:47:17.686Z,7.72
2018-09-17T22:49:45.719Z,8.30
2018-09-17T22:52:13.772Z,7.75
2018-09-17T22:54:41.817Z,7.70
2018-09-17T22:57:09.864Z,8.20
2018-09-17T22:59:37.907Z,7.75
2018-09-17T23:02:05.944Z,8.60
2018-09-17T23:04:34.020Z,7.60
2018-09-17T23:07:02.144Z,7.80
2018-09-17T23:09:30.180Z,9.30
2018-09-17T23:11:58.224Z,12.80
2018-09-17T23:14:26.282Z,12.40
2018-09-17T23:16:54.320Z,11.78
2018-09-17T23:19:22.807Z,15.05
2018-09-17T23:21:50.903Z,17.55
2018-09-17T23:24:18.939Z,14.35
2018-09-17T23:26:46.982Z,12.87
2018-09-17T23:29:15.007Z,10.38
2018-09-17T23:31:43.047Z,9.20
2018-09-17T23:34:11.090Z,8.70
2018-09-17T23:36:39.191Z,8.55
2018-09-17T23:39:09.436Z,8.00
2018-09-17T23:41:37.713Z,8.90
2018-09-17T23:44:05.736Z,8.83
2018-09-17T23:46:34.053Z,9.38
2018-09-17T23:49:02.110Z,8.88
2018-09-17T23:51:30.103Z,8.10
2018-09-17T23:53:58.264Z,8.47
2018-09-17T23:56:26.264Z,7.90
2018-09-17T23:58:54.284Z,8.50
